• Join FlightAware (Why Join?)
  • Login
  • US Flag 
07:19PM EST


 

Airport Tracker/Info


-or-


 

Live Flight TrackerFlight Track Log ✈ UAL5419 ✈ 29-Apr-2013 ✈ KMKE - KORD

Flight Track Log - Related Links

Times and Time Zones

All times are in EDT time to prevent confusion due to time zone crossing. See the UAL5419 flight status page for this flight to view local times or setup timezone preferences in your user account.

Time Position Orientation Groundspeed Altitude Reporting Facility
EDT Latitude Longitude Course Direction KTS MPH feet Rate Location/Type
02:58PM 42.9333 -87.9000 160° South 144 166 1,400  Level KMKE
02:59PM 42.8667 -87.8667 160° South 216 249 4,100 2,400 Climbing KMKE
03:00PM 42.8000 -87.8333 160° South 277 319 6,800 1,680 Climbing KMKE
03:01PM 42.7728 -87.8039 142° Southeast 268 308 7,000 60 Climbing Chicago Center
03:02PM 42.7100 -87.7431 145° Southeast 274 315 7,000  Level Chicago Center
03:03PM 42.6381 -87.6747 145° Southeast 272 313 7,000  Level Chicago Center
03:04PM 42.5728 -87.6333 155° Southeast 268 308 7,000  Level Chicago Center
03:05PM 42.4981 -87.6217 173° South 269 310 7,000  Level Chicago Center
03:06PM 42.4211 -87.6100 174° South 275 316 7,000 -480 Level Chicago Center
03:07PM 42.3483 -87.5825 164° South 273 314 6,100 -540 Descending Chicago Center
03:08PM 42.2806 -87.5917 186° South 252 290 6,000 -60 Descending Chicago Center
03:09PM 42.2258 -87.6417 214° Southwest 196 226 6,000  Level Chicago Center
03:10PM 42.1892 -87.6844 221° Southwest 177 204 6,000 -480 Level Chicago Center
03:11PM 42.1522 -87.7253 219° Southwest 174 200 5,100 -960 Descending Chicago Center
03:12PM 42.1158 -87.7653 219° Southwest 171 197 4,100 -1,020 Descending Chicago Center
03:13PM 42.0769 -87.8097 220° Southwest 177 204 3,000 -1,200 Descending Chicago Center
03:14PM 42.0367 -87.8558 220° Southwest 168 193 1,700 -840 Descending Chicago Center
03:15PM 42.0142 -87.8778 216° Southwest 144 166 1,300 -420 Descending Chicago Center
03:17PM 41.9817 -87.9067 217° Southwest  Level Estimated
03:24PM 41.9817 -87.9067 217° Southwest  Level Estimated